Time;durP1;ratioP1;P1;durP2;ratioP2;P2;SDS_P1;SDS_P2;PMS_P1;PMS_P2;Temp;Humidity;BMP_temperature;BMP_pressure;BME280_temperature;BME280_humidity;BME280_pressure;Samples;Min_cycle;Max_cycle;Signal;HPM_P1;HPM_P2
2021/04/14 00:00:35;;;;;;;2.47;0.95;;;16.80;52.70;;;;;;5057438;28;20096;-70
2021/04/14 00:03:03;;;;;;;3.22;1.00;;;16.80;52.80;;;;;;5071045;28;20032;-70
2021/04/14 00:05:35;;;;;;;1.40;0.70;;;16.70;52.10;;;;;;5066687;28;20099;-70
2021/04/14 00:08:02;;;;;;;3.22;0.90;;;16.80;52.10;;;;;;5070489;28;20532;-70
2021/04/14 00:10:30;;;;;;;4.15;1.02;;;16.80;52.00;;;;;;5068968;28;20115;-70
2021/04/14 00:12:56;;;;;;;2.65;1.00;;;16.90;51.80;;;;;;5065833;28;20033;-70
2021/04/14 00:15:30;;;;;;;2.40;1.00;;;16.90;51.80;;;;;;5070525;28;20028;-70
2021/04/14 00:17:56;;;;;;;2.88;1.00;;;16.80;51.70;;;;;;5070613;28;20493;-70
2021/04/14 00:20:22;;;;;;;1.55;0.85;;;16.80;51.80;;;;;;5072017;28;20032;-70
2021/04/14 00:22:48;;;;;;;3.45;1.10;;;16.80;52.60;;;;;;5064811;28;20056;-68
2021/04/14 00:25:22;;;;;;;2.85;1.00;;;16.80;51.80;;;;;;5071622;28;20031;-70
2021/04/14 00:27:47;;;;;;;2.22;1.00;;;16.80;52.40;;;;;;5055895;28;20124;-70
2021/04/14 00:30:14;;;;;;;2.47;0.95;;;16.70;52.30;;;;;;5065538;28;20541;-70
2021/04/14 00:32:39;;;;;;;3.15;1.08;;;16.70;52.40;;;;;;5070133;28;20037;-70
2021/04/14 00:35:06;;;;;;;3.50;1.08;;;16.70;52.80;;;;;;5069597;28;20047;-70
2021/04/14 00:37:32;;;;;;;3.38;1.02;;;16.70;52.60;;;;;;5063002;28;20040;-70
2021/04/14 00:39:58;;;;;;;1.58;0.90;;;16.70;52.40;;;;;;5071619;28;20063;-70
2021/04/14 00:42:23;;;;;;;3.75;0.98;;;16.70;53.20;;;;;;5061434;28;20028;-70
2021/04/14 00:44:49;;;;;;;2.03;0.88;;;16.60;52.70;;;;;;5066938;28;20024;-70
2021/04/14 00:47:17;;;;;;;2.75;1.02;;;16.60;52.60;;;;;;5060356;28;20029;-70
2021/04/14 00:49:44;;;;;;;2.95;1.00;;;16.60;52.90;;;;;;5052631;28;20027;-70
2021/04/14 00:52:10;;;;;;;3.63;1.10;;;16.60;53.40;;;;;;5062551;28;20021;-70
2021/04/14 00:54:36;;;;;;;2.17;0.90;;;16.60;53.50;;;;;;5071166;28;20036;-70
2021/04/14 00:57:02;;;;;;;3.97;1.02;;;16.60;52.70;;;;;;5069693;28;20045;-70
2021/04/14 00:59:27;;;;;;;2.22;0.80;;;16.50;53.40;;;;;;5070289;28;20027;-70
2021/04/14 01:01:53;;;;;;;2.80;0.90;;;16.50;53.30;;;;;;5069468;28;20036;-70
2021/04/14 01:04:18;;;;;;;3.00;0.70;;;16.50;52.90;;;;;;5069532;28;20092;-70
2021/04/14 01:06:44;;;;;;;1.98;0.88;;;16.50;53.30;;;;;;5054433;28;20025;-70
2021/04/14 01:09:10;;;;;;;2.67;0.73;;;16.50;53.20;;;;;;5065055;28;20021;-70
2021/04/14 01:11:36;;;;;;;2.78;1.00;;;16.50;53.40;;;;;;5066139;28;20032;-71
2021/04/14 01:14:02;;;;;;;2.38;1.10;;;16.40;52.80;;;;;;5050944;28;20029;-70
2021/04/14 01:16:27;;;;;;;2.45;0.95;;;16.40;53.30;;;;;;5049920;28;20525;-70
2021/04/14 01:18:53;;;;;;;2.38;0.98;;;16.40;53.10;;;;;;5051352;28;20096;-71
2021/04/14 01:21:22;;;;;;;2.97;0.95;;;16.40;53.50;;;;;;5057305;28;20461;-70
2021/04/14 01:23:48;;;;;;;4.60;0.90;;;16.40;53.40;;;;;;5055108;28;20035;-70
2021/04/14 01:26:13;;;;;;;2.65;0.90;;;16.30;53.40;;;;;;5053976;28;20036;-70
2021/04/14 01:28:44;;;;;;;1.63;0.90;;;16.30;53.20;;;;;;5074337;28;20036;-70
2021/04/14 01:31:13;;;;;;;2.42;0.98;;;16.30;53.10;;;;;;5060342;28;20032;-70
2021/04/14 01:33:39;;;;;;;3.42;1.20;;;16.30;53.20;;;;;;5070132;28;20111;-70
2021/04/14 01:36:07;;;;;;;3.50;1.15;;;16.30;53.70;;;;;;5055179;28;20025;-71
2021/04/14 01:38:33;;;;;;;2.30;0.80;;;16.20;53.60;;;;;;5053703;28;20056;-70
2021/04/14 01:41:00;;;;;;;2.90;0.90;;;16.20;54.50;;;;;;5073228;28;20075;-70
2021/04/14 01:43:25;;;;;;;1.77;0.90;;;16.30;53.30;;;;;;5060026;28;20458;-71
2021/04/14 01:45:51;;;;;;;1.70;0.80;;;16.20;53.80;;;;;;5074707;28;20016;-70
2021/04/14 01:48:18;;;;;;;2.58;0.88;;;16.20;53.60;;;;;;5073187;28;20363;-71
2021/04/14 01:50:44;;;;;;;1.88;0.85;;;16.20;53.50;;;;;;5071823;28;20044;-70
2021/04/14 01:53:12;;;;;;;3.95;1.00;;;16.20;53.30;;;;;;5071932;28;20048;-70
2021/04/14 01:55:38;;;;;;;5.57;0.90;;;16.20;53.10;;;;;;5058276;28;20394;-70
2021/04/14 01:58:05;;;;;;;2.17;0.80;;;16.20;53.40;;;;;;5054922;28;20025;-70
2021/04/14 02:00:38;;;;;;;2.63;1.00;;;16.10;53.50;;;;;;5056752;28;20037;-70
2021/04/14 02:03:04;;;;;;;3.13;0.90;;;16.10;54.10;;;;;;5064693;28;20016;-70
2021/04/14 02:05:32;;;;;;;1.58;0.65;;;16.10;53.00;;;;;;5068769;28;20040;-71
2021/04/14 02:07:58;;;;;;;1.92;0.70;;;16.10;53.50;;;;;;5074349;28;20027;-70
2021/04/14 02:10:26;;;;;;;4.43;0.90;;;16.10;53.40;;;;;;5073983;28;20538;-69
2021/04/14 02:12:52;;;;;;;4.20;1.17;;;16.10;53.10;;;;;;5073728;28;20132;-70
2021/04/14 02:15:21;;;;;;;2.58;0.95;;;16.10;54.00;;;;;;5070438;28;20036;-70
2021/04/14 02:17:47;;;;;;;2.80;0.90;;;16.10;53.50;;;;;;5066161;28;20037;-69
2021/04/14 02:20:13;;;;;;;2.28;0.80;;;16.00;53.80;;;;;;5072405;28;20107;-70
2021/04/14 02:22:39;;;;;;;2.72;0.90;;;16.00;53.50;;;;;;5073934;28;20493;-70
2021/04/14 02:25:08;;;;;;;2.00;0.73;;;16.00;53.80;;;;;;5058599;28;20025;-70
2021/04/14 02:27:34;;;;;;;4.03;1.10;;;16.00;53.70;;;;;;5054083;28;20033;-69
2021/04/14 02:30:00;;;;;;;1.52;0.82;;;16.00;53.50;;;;;;5057441;28;20090;-70
2021/04/14 02:32:26;;;;;;;4.22;0.70;;;16.00;53.50;;;;;;5073744;28;20050;-70
2021/04/14 02:34:52;;;;;;;1.58;0.90;;;16.00;53.20;;;;;;5071711;28;20032;-70
2021/04/14 02:37:17;;;;;;;3.25;0.90;;;15.90;53.60;;;;;;5065933;28;20079;-70
2021/04/14 02:39:43;;;;;;;2.22;0.90;;;16.00;53.70;;;;;;5059983;28;20036;-70
2021/04/14 02:42:09;;;;;;;3.10;0.95;;;16.00;53.30;;;;;;5066400;28;20032;-70
2021/04/14 02:44:34;;;;;;;4.60;1.23;;;15.90;53.40;;;;;;5053546;28;20036;-70
2021/04/14 02:47:00;;;;;;;3.70;0.93;;;15.90;53.10;;;;;;5053381;28;20021;-70
2021/04/14 02:49:25;;;;;;;3.65;1.08;;;15.90;53.80;;;;;;5065264;28;20032;-70
2021/04/14 02:51:51;;;;;;;2.97;0.73;;;15.90;53.70;;;;;;5059696;28;20111;-70
2021/04/14 02:54:18;;;;;;;1.98;0.65;;;15.90;53.90;;;;;;5071883;28;20024;-70
2021/04/14 02:56:43;;;;;;;3.20;1.00;;;15.90;53.70;;;;;;5071655;28;20029;-70
2021/04/14 02:59:09;;;;;;;3.53;1.13;;;15.90;53.30;;;;;;5071838;28;20041;-70
2021/04/14 03:01:34;;;;;;;3.38;0.85;;;15.90;53.30;;;;;;5053231;28;20036;-70
2021/04/14 03:04:00;;;;;;;2.40;0.85;;;15.80;53.70;;;;;;5063235;28;20039;-70
2021/04/14 03:06:26;;;;;;;2.15;0.82;;;15.80;53.30;;;;;;5071630;28;20020;-70
2021/04/14 03:08:51;;;;;;;2.47;0.90;;;15.80;53.70;;;;;;5073108;28;20029;-70
2021/04/14 03:11:17;;;;;;;3.17;0.80;;;15.80;53.70;;;;;;5066619;28;20033;-69
2021/04/14 03:13:43;;;;;;;3.95;1.15;;;15.80;53.70;;;;;;5052988;28;20108;-70
2021/04/14 03:16:08;;;;;;;3.13;1.00;;;15.80;53.50;;;;;;5054912;28;20048;-69
2021/04/14 03:18:34;;;;;;;2.72;0.80;;;15.80;53.80;;;;;;5053157;28;20041;-70
2021/04/14 03:20:59;;;;;;;1.65;0.77;;;15.80;53.40;;;;;;5059552;28;20031;-70
2021/04/14 03:23:25;;;;;;;1.65;0.75;;;15.70;53.60;;;;;;5072022;28;20055;-70
2021/04/14 03:25:51;;;;;;;2.95;1.10;;;15.70;53.60;;;;;;5054628;28;20074;-71
2021/04/14 03:28:16;;;;;;;1.55;0.80;;;15.70;53.50;;;;;;5072913;28;20493;-70
2021/04/14 03:30:43;;;;;;;2.55;0.88;;;15.70;53.20;;;;;;5069513;28;20025;-69
2021/04/14 03:33:10;;;;;;;2.45;0.77;;;15.70;53.70;;;;;;5070530;28;20031;-70
2021/04/14 03:35:36;;;;;;;3.15;1.00;;;15.70;53.70;;;;;;5063181;28;20025;-70
2021/04/14 03:38:02;;;;;;;3.28;0.73;;;15.70;53.40;;;;;;5053146;28;20051;-70
2021/04/14 03:40:29;;;;;;;1.83;0.73;;;15.70;53.80;;;;;;5069980;28;20028;-70
2021/04/14 03:42:56;;;;;;;2.55;0.77;;;15.70;53.50;;;;;;5070571;28;20032;-70
2021/04/14 03:45:30;;;;;;;2.13;0.88;;;15.70;54.00;;;;;;5048931;28;20309;-70
2021/04/14 03:47:55;;;;;;;2.47;0.80;;;15.60;53.50;;;;;;5062201;28;20051;-70
2021/04/14 03:50:22;;;;;;;2.90;0.90;;;15.60;53.50;;;;;;5052526;28;20032;-70
2021/04/14 03:52:49;;;;;;;1.85;0.85;;;15.60;54.00;;;;;;5058104;28;20394;-70
2021/04/14 03:55:18;;;;;;;2.47;0.93;;;15.60;53.70;;;;;;5071960;28;20085;-70
2021/04/14 03:57:43;;;;;;;2.15;0.77;;;15.60;53.70;;;;;;5055753;28;20025;-70
2021/04/14 04:00:11;;;;;;;2.03;0.90;;;15.60;53.40;;;;;;5053489;28;20040;-70
2021/04/14 04:02:36;;;;;;;1.75;0.80;;;15.60;53.30;;;;;;5065120;28;20031;-70
2021/04/14 04:05:02;;;;;;;5.50;1.00;;;15.60;53.60;;;;;;5071844;28;20403;-70
2021/04/14 04:07:28;;;;;;;5.03;0.95;;;15.60;53.30;;;;;;5058371;28;20260;-70
2021/04/14 04:09:53;;;;;;;1.58;0.70;;;15.60;53.90;;;;;;5052217;28;20098;-70
2021/04/14 04:12:19;;;;;;;2.92;0.88;;;15.60;53.70;;;;;;5054188;28;20051;-70
2021/04/14 04:14:51;;;;;;;3.10;0.95;;;15.60;53.30;;;;;;5053445;28;20031;-70
2021/04/14 04:17:19;;;;;;;2.45;0.80;;;15.60;53.50;;;;;;5059484;28;20040;-70
2021/04/14 04:19:45;;;;;;;2.28;1.10;;;15.60;54.00;;;;;;5052046;28;20032;-70
2021/04/14 04:22:13;;;;;;;2.17;0.80;;;15.60;53.70;;;;;;5066807;28;20028;-69
2021/04/14 04:24:39;;;;;;;2.55;0.80;;;15.60;53.30;;;;;;5059567;28;20033;-70
2021/04/14 04:27:05;;;;;;;2.25;0.80;;;15.60;53.60;;;;;;5058866;28;20059;-70
2021/04/14 04:29:30;;;;;;;2.15;0.60;;;15.60;53.20;;;;;;5071476;28;20033;-70
2021/04/14 04:31:55;;;;;;;3.45;0.80;;;15.50;53.80;;;;;;5071631;28;20024;-70
2021/04/14 04:34:22;;;;;;;2.70;0.85;;;15.50;53.40;;;;;;5058091;28;20064;-70
2021/04/14 04:36:51;;;;;;;3.45;1.00;;;15.50;53.50;;;;;;5066138;28;20039;-71
2021/04/14 04:39:17;;;;;;;1.80;0.70;;;15.50;53.50;;;;;;5054887;28;20068;-74
2021/04/14 04:41:43;;;;;;;1.35;0.63;;;15.60;53.30;;;;;;5052551;28;20037;-72
2021/04/14 04:44:08;;;;;;;6.78;0.93;;;15.60;53.20;;;;;;5046063;28;20490;-69
2021/04/14 04:46:34;;;;;;;17.50;15.68;;;15.70;53.30;;;;;;5054474;28;20055;-69
2021/04/14 04:48:59;;;;;;;13.52;10.10;;;15.70;53.10;;;;;;5063075;28;20059;-71
2021/04/14 04:51:25;;;;;;;9.80;6.93;;;15.70;53.10;;;;;;5056747;28;20103;-69
2021/04/14 04:53:50;;;;;;;6.63;4.95;;;15.70;53.20;;;;;;5063162;28;20490;-71
2021/04/14 04:56:17;;;;;;;7.20;4.47;;;15.70;53.60;;;;;;5063104;28;20052;-70
2021/04/14 04:58:43;;;;;;;8.95;3.92;;;15.70;53.40;;;;;;5064972;28;20032;-71
2021/04/14 05:01:09;;;;;;;9.05;3.72;;;15.80;53.90;;;;;;5063493;28;20669;-70
2021/04/14 05:03:34;;;;;;;7.18;3.15;;;15.90;53.90;;;;;;5059946;28;20107;-68
2021/04/14 05:06:00;;;;;;;9.20;3.00;;;15.90;53.50;;;;;;5057807;28;20202;-69
2021/04/14 05:08:26;;;;;;;8.73;2.67;;;15.90;53.30;;;;;;5057000;28;20543;-71
2021/04/14 05:10:53;;;;;;;7.63;2.30;;;15.80;53.30;;;;;;5051603;28;20059;-67
2021/04/14 05:13:19;;;;;;;13.45;2.97;;;15.80;53.50;;;;;;5063917;28;20040;-69
2021/04/14 05:15:44;;;;;;;10.15;2.30;;;15.90;53.80;;;;;;5064043;28;20028;-69
2021/04/14 05:18:10;;;;;;;16.52;2.92;;;16.00;53.70;;;;;;5063421;28;20032;-68
2021/04/14 05:20:37;;;;;;;8.73;2.25;;;16.10;53.90;;;;;;5059697;28;20543;-69
2021/04/14 05:23:03;;;;;;;12.88;2.65;;;16.10;53.20;;;;;;5062303;28;20029;-67
2021/04/14 05:25:31;;;;;;;6.32;2.25;;;16.20;52.70;;;;;;5050980;28;20025;-68
2021/04/14 05:28:03;;;;;;;7.30;2.35;;;16.30;52.10;;;;;;5064866;28;20024;-68
2021/04/14 05:30:28;;;;;;;8.70;2.22;;;16.50;51.90;;;;;;5046301;28;20029;-64
2021/04/14 05:32:54;;;;;;;6.72;2.28;;;16.90;51.20;;;;;;5043316;28;20103;-66
2021/04/14 05:35:20;;;;;;;6.63;2.00;;;17.20;50.20;;;;;;5059438;28;20539;-65
2021/04/14 05:37:45;;;;;;;9.07;2.40;;;17.50;49.40;;;;;;5062736;28;20032;-65
2021/04/14 05:40:11;;;;;;;4.82;1.90;;;17.80;49.10;;;;;;5058395;28;20112;-66
2021/04/14 05:42:38;;;;;;;8.07;2.10;;;17.80;48.80;;;;;;5044793;28;20080;-65
2021/04/14 05:45:05;;;;;;;4.60;1.90;;;17.70;48.80;;;;;;5061693;28;20032;-65
2021/04/14 05:47:31;;;;;;;7.20;1.95;;;17.70;48.90;;;;;;5061012;28;20037;-69
2021/04/14 05:49:56;;;;;;;6.57;1.90;;;17.60;49.00;;;;;;5047573;28;20039;-65
2021/04/14 05:52:22;;;;;;;7.28;1.75;;;17.60;49.20;;;;;;5057818;28;20032;-64
2021/04/14 05:54:47;;;;;;;7.78;1.92;;;17.50;49.30;;;;;;5044579;28;20032;-67
2021/04/14 05:57:13;;;;;;;4.57;1.67;;;17.50;49.40;;;;;;5060448;28;20032;-66
2021/04/14 05:59:38;;;;;;;8.95;3.10;;;17.50;49.40;;;;;;5060264;28;20045;-61
2021/04/14 06:02:04;;;;;;;6.95;2.75;;;17.40;49.60;;;;;;5057923;28;20512;-64
2021/04/14 06:04:29;;;;;;;8.98;3.25;;;17.40;49.40;;;;;;5057162;28;20025;-61
2021/04/14 06:06:55;;;;;;;13.00;3.60;;;17.40;49.00;;;;;;5045516;28;20036;-60
2021/04/14 06:09:20;;;;;;;10.30;2.95;;;17.50;49.20;;;;;;5048710;28;20107;-62
2021/04/14 06:11:46;;;;;;;6.57;2.78;;;17.60;49.20;;;;;;5054139;28;20044;-60
2021/04/14 06:14:11;;;;;;;6.20;2.40;;;17.60;49.30;;;;;;5051577;28;20456;-61
2021/04/14 06:16:37;;;;;;;6.22;2.60;;;17.70;49.20;;;;;;5064492;28;20035;-65
2021/04/14 06:19:04;;;;;;;6.57;2.25;;;17.80;49.20;;;;;;5060270;28;20033;-60
2021/04/14 06:21:29;;;;;;;6.55;1.90;;;17.90;49.10;;;;;;5057385;28;20060;-65
2021/04/14 06:23:57;;;;;;;6.80;2.35;;;18.00;48.90;;;;;;5058562;28;20520;-62
2021/04/14 06:26:29;;;;;;;6.63;2.13;;;18.10;48.60;;;;;;5064586;28;20025;-62
2021/04/14 06:28:55;;;;;;;8.32;2.35;;;18.20;48.20;;;;;;5066811;28;20847;-60
2021/04/14 06:31:21;;;;;;;5.50;1.77;;;18.30;48.10;;;;;;5066108;28;20024;-61
2021/04/14 06:33:49;;;;;;;5.95;1.80;;;18.50;47.70;;;;;;5065924;28;20037;-60
2021/04/14 06:36:15;;;;;;;8.13;2.08;;;18.50;47.60;;;;;;5062400;28;20045;-60
2021/04/14 06:38:46;;;;;;;4.15;1.90;;;18.40;47.70;;;;;;5055018;28;20115;-60
2021/04/14 06:44:31;;;;;;;5.82;2.05;;;18.30;47.90;;;;;;5058399;28;20453;-60
2021/04/14 06:46:57;;;;;;;6.10;2.17;;;18.60;47.60;;;;;;5065554;28;20047;-65
2021/04/14 06:49:54;;;;;;;6.32;2.30;;;18.90;46.80;;;;;;5062962;28;20496;-60
2021/04/14 06:52:43;;;;;;;6.60;1.55;;;18.90;46.80;;;;;;5066365;28;20040;-60
2021/04/14 06:55:27;;;;;;;3.65;1.55;;;19.40;46.00;;;;;;5064376;28;20111;-60
2021/04/14 06:57:57;;;;;;;7.60;1.85;;;19.60;45.20;;;;;;5065088;28;20028;-62
2021/04/14 07:00:35;;;;;;;7.35;1.58;;;20.20;44.70;;;;;;5066788;28;20037;-62
2021/04/14 07:03:15;;;;;;;4.82;1.77;;;21.00;43.20;;;;;;5066053;28;20028;-62
2021/04/14 07:05:46;;;;;;;6.25;1.92;;;21.30;42.10;;;;;;5065718;28;20052;-61
2021/04/14 07:08:20;;;;;;;8.95;1.90;;;21.30;41.80;;;;;;5064492;28;20037;-65
2021/04/14 07:10:50;;;;;;;3.78;1.80;;;21.30;42.50;;;;;;5062774;28;20071;-63
2021/04/14 07:13:17;;;;;;;5.05;1.67;;;20.70;42.80;;;;;;5064372;28;20036;-61
2021/04/14 07:15:42;;;;;;;6.65;1.90;;;20.50;43.40;;;;;;5065819;28;20027;-66
2021/04/14 07:18:20;;;;;;;8.48;2.28;;;20.60;43.40;;;;;;5064353;28;20016;-65
2021/04/14 07:20:52;;;;;;;7.43;1.95;;;20.50;43.30;;;;;;5064341;28;20035;-62
2021/04/14 07:23:33;;;;;;;6.43;2.13;;;20.30;43.70;;;;;;5064399;28;20032;-64
2021/04/14 07:26:12;;;;;;;7.93;2.22;;;20.10;44.10;;;;;;5066549;28;20044;-63
2021/04/14 07:29:01;;;;;;;3.85;1.85;;;20.20;44.10;;;;;;5065965;28;20115;-63
2021/04/14 07:31:57;;;;;;;6.88;1.83;;;20.10;44.20;;;;;;5065213;28;20103;-62
2021/04/14 07:34:49;;;;;;;5.22;1.52;;;20.90;43.70;;;;;;5069464;28;20028;-63
2021/04/14 07:37:22;;;;;;;5.10;1.70;;;21.80;41.40;;;;;;5064654;28;20873;-65
2021/04/14 07:40:05;;;;;;;6.93;2.10;;;21.80;41.00;;;;;;5050873;28;20037;-65
2021/04/14 07:42:52;;;;;;;4.53;1.70;;;21.90;40.90;;;;;;5052791;28;20717;-64
2021/04/14 07:45:29;;;;;;;4.78;1.73;;;21.80;41.10;;;;;;5064680;28;20020;-62
2021/04/14 07:47:59;;;;;;;4.07;1.50;;;22.80;40.20;;;;;;5061690;28;20052;-63
2021/04/14 07:50:34;;;;;;;3.10;1.40;;;22.50;39.50;;;;;;5061731;28;20502;-63
2021/04/14 07:52:59;;;;;;;3.80;1.55;;;22.70;39.80;;;;;;5060328;28;20040;-63
2021/04/14 07:55:32;;;;;;;4.72;1.50;;;23.10;39.10;;;;;;5064278;28;20029;-63
2021/04/14 07:58:06;;;;;;;3.45;1.20;;;23.30;38.80;;;;;;5066258;28;20100;-62
2021/04/14 08:00:42;;;;;;;3.83;1.48;;;23.30;38.90;;;;;;5066466;28;20032;-63
2021/04/14 08:03:30;;;;;;;3.83;1.40;;;24.00;38.00;;;;;;5064134;28;20032;-63
2021/04/14 08:06:17;;;;;;;3.38;1.30;;;24.30;37.80;;;;;;5066180;28;20115;-63
2021/04/14 08:08:46;;;;;;;3.83;1.40;;;24.30;37.00;;;;;;5065938;28;20402;-62
2021/04/14 08:11:33;;;;;;;5.00;1.63;;;24.60;36.80;;;;;;5065858;28;20043;-63
2021/04/14 08:14:13;;;;;;;3.63;1.30;;;24.80;36.40;;;;;;5062931;28;20031;-64
2021/04/14 08:16:46;;;;;;;4.97;1.52;;;25.20;36.00;;;;;;5064480;28;20016;-63
2021/04/14 08:19:17;;;;;;;4.90;1.60;;;25.00;36.00;;;;;;5063783;28;20028;-62
2021/04/14 08:22:00;;;;;;;4.82;1.38;;;25.40;35.90;;;;;;5063257;28;20029;-63
2021/04/14 08:24:47;;;;;;;4.55;1.45;;;25.60;35.30;;;;;;5048958;28;20033;-64
2021/04/14 08:27:15;;;;;;;3.60;1.25;;;25.80;35.40;;;;;;5062821;28;20031;-63
2021/04/14 08:29:41;;;;;;;6.18;1.40;;;25.90;34.90;;;;;;5063662;28;20560;-63
2021/04/14 08:32:11;;;;;;;4.75;1.40;;;26.00;34.90;;;;;;5064896;28;20051;-63
2021/04/14 08:34:39;;;;;;;5.13;1.63;;;26.10;34.50;;;;;;5064880;28;20016;-63
2021/04/14 08:37:04;;;;;;;5.32;2.08;;;26.40;34.90;;;;;;5064470;28;20116;-62
2021/04/14 08:39:36;;;;;;;23.63;9.95;;;26.20;34.20;;;;;;5064365;28;20125;-67
2021/04/14 08:42:06;;;;;;;;;;;25.20;34.90;;;;;;5064281;28;20039;-67
2021/04/14 08:44:35;;;;;;;15.93;5.63;;;23.90;36.90;;;;;;5063234;28;19908;-62
2021/04/14 08:47:31;;;;;;;16.88;5.50;;;23.60;38.00;;;;;;5054421;28;20107;-63
2021/04/14 08:50:05;;;;;;;15.55;5.75;;;22.90;38.80;;;;;;5032530;28;20041;-62
2021/04/14 08:52:32;;;;;;;14.15;5.40;;;22.40;39.60;;;;;;5058909;28;20108;-64
2021/04/14 08:54:59;;;;;;;12.50;4.93;;;22.00;40.00;;;;;;5064427;28;20442;-63
2021/04/14 08:57:26;;;;;;;12.60;4.25;;;21.80;40.50;;;;;;5064340;28;20028;-63
2021/04/14 08:59:51;;;;;;;11.25;4.55;;;21.50;41.20;;;;;;5063628;28;20028;-62
2021/04/14 09:02:22;;;;;;;10.55;3.30;;;21.30;41.80;;;;;;5062113;28;20215;-61
2021/04/14 09:04:50;;;;;;;8.95;3.55;;;21.20;42.00;;;;;;5066612;28;20071;-62
2021/04/14 09:07:32;;;;;;;10.82;3.10;;;21.00;42.30;;;;;;5064918;28;20074;-63
2021/04/14 09:09:58;;;;;;;7.13;2.70;;;20.80;42.40;;;;;;5063672;28;20505;-62
2021/04/14 09:12:37;;;;;;;10.55;3.20;;;20.70;42.80;;;;;;5062376;28;20551;-62
2021/04/14 09:15:09;;;;;;;7.57;2.42;;;20.50;42.90;;;;;;5062598;28;20470;-63
2021/04/14 09:17:35;;;;;;;8.13;2.42;;;20.40;43.30;;;;;;5061655;28;20063;-62
2021/04/14 09:20:20;;;;;;;5.88;2.35;;;20.30;43.50;;;;;;5062755;28;20544;-63
2021/04/14 09:23:07;;;;;;;6.30;2.00;;;20.20;43.60;;;;;;5060193;28;20035;-61
2021/04/14 09:25:41;;;;;;;5.75;2.22;;;20.20;44.10;;;;;;5061143;28;20031;-63
2021/04/14 09:28:09;;;;;;;6.93;2.22;;;20.30;43.70;;;;;;5055904;28;20032;-63
2021/04/14 09:30:57;;;;;;;8.23;2.25;;;20.40;43.20;;;;;;5057820;28;20135;-63
2021/04/14 09:33:45;;;;;;;6.18;1.60;;;20.60;43.30;;;;;;5062642;28;20498;-63
2021/04/14 09:36:13;;;;;;;6.32;2.13;;;22.60;41.20;;;;;;5049200;28;20063;-62
2021/04/14 09:38:48;;;;;;;6.80;1.60;;;24.30;38.00;;;;;;5044989;28;20028;-62
2021/04/14 09:41:25;;;;;;;4.85;2.08;;;23.00;37.90;;;;;;5043291;28;20029;-63
2021/04/14 09:43:53;;;;;;;5.00;1.80;;;21.90;39.80;;;;;;5063668;28;20028;-63
2021/04/14 09:47:05;;;;;;;15.18;2.92;;;21.30;41.10;;;;;;5057681;28;20033;-62
2021/04/14 09:49:43;;;;;;;7.72;1.90;;;21.00;41.40;;;;;;5037765;28;20061;-63
2021/04/14 09:52:21;;;;;;;5.03;1.83;;;20.70;42.00;;;;;;5048655;28;20025;-64
2021/04/14 09:54:49;;;;;;;6.03;2.10;;;20.50;42.50;;;;;;5048063;28;20025;-63
2021/04/14 09:57:19;;;;;;;4.90;1.67;;;20.40;43.10;;;;;;5048403;28;20029;-63
2021/04/14 09:59:45;;;;;;;8.98;3.63;;;20.30;43.10;;;;;;5048172;28;20030;-70
2021/04/14 10:02:17;;;;;;;7.88;2.28;;;20.30;42.70;;;;;;5066494;28;20033;-62
2021/04/14 10:04:43;;;;;;;10.32;2.88;;;20.80;43.00;;;;;;5062442;28;20032;-68
2021/04/14 10:07:31;;;;;;;11.15;2.58;;;22.90;40.40;;;;;;5059879;28;20063;-63
2021/04/14 10:10:27;;;;;;;7.78;2.63;;;24.70;37.10;;;;;;5046842;28;20032;-61
2021/04/14 10:12:52;;;;;;;11.43;3.38;;;25.70;34.90;;;;;;5038949;28;20112;-62
2021/04/14 10:15:37;;;;;;;8.70;3.53;;;26.10;34.50;;;;;;5047776;28;20036;-63
2021/04/14 10:18:18;;;;;;;9.07;3.20;;;26.00;34.20;;;;;;5047955;28;20029;-62
2021/04/14 10:20:44;;;;;;;7.88;3.15;;;24.80;35.50;;;;;;5047995;28;20058;-63
2021/04/14 10:23:12;;;;;;;9.57;3.00;;;25.50;35.40;;;;;;5047220;28;20130;-61
2021/04/14 10:25:40;;;;;;;7.43;2.83;;;24.40;36.70;;;;;;5048012;28;20033;-63
2021/04/14 10:28:24;;;;;;;6.20;2.30;;;24.80;36.00;;;;;;5047783;28;20040;-63
2021/04/14 10:31:21;;;;;;;6.72;2.47;;;25.80;34.80;;;;;;5047921;28;20558;-64
2021/04/14 10:33:46;;;;;;;8.50;2.33;;;24.50;35.60;;;;;;5038870;28;20120;-62
2021/04/14 10:36:20;;;;;;;6.78;2.28;;;23.10;37.90;;;;;;5047606;28;20144;-63
2021/04/14 10:38:45;;;;;;;6.40;2.00;;;22.30;39.50;;;;;;5048205;28;20028;-62
2021/04/14 10:41:24;;;;;;;6.10;2.15;;;21.70;40.60;;;;;;5046341;28;20538;-63
2021/04/14 10:43:50;;;;;;;5.15;1.80;;;21.30;41.30;;;;;;5047425;28;20025;-63
2021/04/14 10:46:21;;;;;;;4.18;1.80;;;21.10;41.70;;;;;;5047267;28;20502;-61
2021/04/14 10:48:50;;;;;;;5.45;1.80;;;21.00;42.10;;;;;;5047119;28;20043;-62
2021/04/14 10:51:24;;;;;;;5.80;1.77;;;20.90;42.50;;;;;;5047264;28;20029;-63
2021/04/14 10:53:56;;;;;;;6.22;2.00;;;20.80;42.70;;;;;;5045558;28;20035;-63
2021/04/14 10:56:28;;;;;;;4.90;1.80;;;20.80;42.70;;;;;;5047167;28;20028;-62
2021/04/14 10:58:56;;;;;;;4.53;1.63;;;20.70;42.80;;;;;;5047380;28;20060;-63
2021/04/14 11:01:43;;;;;;;5.10;1.75;;;20.90;42.40;;;;;;5046975;28;20044;-63
2021/04/14 11:04:15;;;;;;;7.60;1.70;;;20.70;42.90;;;;;;5046746;28;20036;-62
2021/04/14 11:06:47;;;;;;;5.50;1.65;;;20.50;43.20;;;;;;5046970;28;20029;-62
2021/04/14 11:09:14;;;;;;;5.03;1.60;;;20.30;43.60;;;;;;5046932;28;20029;-62
2021/04/14 11:11:41;;;;;;;5.20;1.33;;;20.20;43.80;;;;;;5047174;28;20461;-63
2021/04/14 11:14:10;;;;;;;3.25;1.35;;;20.10;44.10;;;;;;5046599;28;20422;-63
2021/04/14 11:16:40;;;;;;;3.78;1.30;;;20.10;44.20;;;;;;5046957;28;20029;-62
2021/04/14 11:19:25;;;;;;;3.85;1.30;;;20.10;44.30;;;;;;5046822;28;20028;-63
2021/04/14 11:22:21;;;;;;;4.45;1.52;;;20.10;44.20;;;;;;5046152;28;20032;-63
2021/04/14 11:24:51;;;;;;;3.85;1.30;;;20.20;43.80;;;;;;5036693;28;20029;-63
2021/04/14 11:27:28;;;;;;;2.67;1.25;;;20.60;43.40;;;;;;5046865;28;20739;-62
2021/04/14 11:30:09;;;;;;;3.53;1.40;;;20.60;43.30;;;;;;5046832;28;20560;-63
2021/04/14 11:32:35;;;;;;;4.95;1.40;;;21.80;41.20;;;;;;5045272;28;20309;-63
2021/04/14 11:35:14;;;;;;;2.97;1.40;;;21.30;41.40;;;;;;5046378;28;20487;-62
2021/04/14 11:37:44;;;;;;;3.42;1.10;;;20.80;42.30;;;;;;5047072;28;20086;-62
2021/04/14 11:40:19;;;;;;;4.88;1.23;;;20.50;43.00;;;;;;5046527;28;20036;-63
2021/04/14 11:42:59;;;;;;;2.75;1.17;;;20.90;43.00;;;;;;5046394;28;20036;-62
2021/04/14 11:45:31;;;;;;;3.08;1.25;;;22.60;39.60;;;;;;5046690;28;20025;-62
2021/04/14 11:48:28;;;;;;;2.80;0.98;;;23.60;37.90;;;;;;5046684;28;20021;-63
2021/04/14 11:50:53;;;;;;;3.58;1.20;;;23.20;37.70;;;;;;5044952;28;20145;-62
2021/04/14 11:53:24;;;;;;;2.75;0.90;;;22.10;39.70;;;;;;5045733;28;20434;-63
2021/04/14 11:55:50;;;;;;;2.13;1.08;;;22.70;39.70;;;;;;5044861;28;20040;-63
2021/04/14 11:58:33;;;;;;;3.58;1.10;;;21.90;40.60;;;;;;5044846;28;20288;-64
2021/04/14 12:00:59;;;;;;;2.65;1.10;;;22.10;40.60;;;;;;5046067;28;20039;-64
2021/04/14 12:03:37;;;;;;;3.88;1.23;;;21.70;40.90;;;;;;5046187;28;20029;-62
2021/04/14 12:06:03;;;;;;;3.15;1.10;;;21.40;41.10;;;;;;5045689;28;20047;-63
2021/04/14 12:08:30;;;;;;;2.40;1.00;;;21.00;41.90;;;;;;5044481;28;20120;-62
2021/04/14 12:10:56;;;;;;;2.78;1.00;;;20.60;42.70;;;;;;5044427;28;20029;-63
2021/04/14 12:13:23;;;;;;;2.88;0.93;;;20.40;43.00;;;;;;5045568;28;20039;-63
2021/04/14 12:15:49;;;;;;;3.92;1.20;;;20.10;43.40;;;;;;5045814;28;20534;-63
2021/04/14 12:18:15;;;;;;;3.80;1.10;;;19.90;44.00;;;;;;5045527;28;20031;-62
2021/04/14 12:20:41;;;;;;;2.97;1.15;;;19.70;44.10;;;;;;5044776;28;20024;-62
2021/04/14 12:23:06;;;;;;;2.33;0.90;;;19.60;44.70;;;;;;5044897;28;20395;-63
2021/04/14 12:25:32;;;;;;;2.58;0.90;;;19.40;45.00;;;;;;5045260;28;20723;-63
2021/04/14 12:27:58;;;;;;;2.83;1.10;;;19.30;45.40;;;;;;5045516;28;20374;-63
2021/04/14 12:30:26;;;;;;;4.88;1.33;;;19.20;45.70;;;;;;5045123;28;20052;-63
2021/04/14 12:32:52;;;;;;;2.20;0.88;;;19.10;45.80;;;;;;5045196;28;20029;-63
2021/04/14 12:35:18;;;;;;;2.50;1.02;;;19.10;45.80;;;;;;5045236;28;20031;-63
2021/04/14 12:37:44;;;;;;;3.50;0.88;;;19.10;45.70;;;;;;5045356;28;20029;-63
2021/04/14 12:40:11;;;;;;;2.25;0.80;;;19.10;45.70;;;;;;5045301;28;20513;-62
2021/04/14 12:42:37;;;;;;;3.42;0.90;;;19.10;45.60;;;;;;5045111;28;20032;-62
2021/04/14 12:45:25;;;;;;;1.67;0.70;;;19.20;45.60;;;;;;5044838;28;20386;-62
2021/04/14 12:47:51;;;;;;;1.73;0.70;;;19.20;45.30;;;;;;5040886;28;20381;-62
2021/04/14 12:50:16;;;;;;;2.45;0.70;;;19.10;44.50;;;;;;5045456;28;20486;-62
2021/04/14 12:52:50;;;;;;;1.70;0.63;;;19.20;44.90;;;;;;5044833;28;20037;-63
2021/04/14 12:55:18;;;;;;;4.05;1.00;;;19.10;44.40;;;;;;5045226;28;20103;-62
2021/04/14 12:57:44;;;;;;;2.90;0.75;;;19.10;45.30;;;;;;5044950;28;20316;-62
2021/04/14 13:00:18;;;;;;;2.28;0.90;;;19.20;45.20;;;;;;5045070;28;20064;-62
2021/04/14 13:02:57;;;;;;;2.15;0.90;;;19.20;45.00;;;;;;5044845;28;20029;-63